createdAt,value
2023-01-28T00:00:59.894Z,64.79
2023-01-28T00:04:05.825Z,64.52
2023-01-28T00:07:12.420Z,64.54
2023-01-28T00:10:19.378Z,64.92
2023-01-28T00:13:25.997Z,65.15
2023-01-28T00:16:34.754Z,65.14
2023-01-28T00:19:41.323Z,65.11
2023-01-28T00:22:52.260Z,64.94
2023-01-28T00:26:02.185Z,64.82
2023-01-28T00:29:08.181Z,64.69
2023-01-28T00:32:19.160Z,64.99
2023-01-28T00:35:25.097Z,64.92
2023-01-28T00:38:32.490Z,64.75
2023-01-28T00:41:38.269Z,64.66
2023-01-28T00:44:44.898Z,64.63
2023-01-28T00:47:53.285Z,64.86
2023-01-28T00:51:00.004Z,64.23
2023-01-28T00:54:06.208Z,64.00
2023-01-28T00:57:13.424Z,64.16
2023-01-28T01:00:22.028Z,63.77
2023-01-28T01:03:31.485Z,64.59
2023-01-28T01:06:43.755Z,64.10
2023-01-28T01:09:52.715Z,64.14
2023-01-28T01:12:59.360Z,64.14
2023-01-28T01:16:09.909Z,64.41
2023-01-28T01:19:18.329Z,64.82
2023-01-28T01:22:24.943Z,64.99
2023-01-28T01:25:30.917Z,64.78
2023-01-28T01:28:37.798Z,65.01
2023-01-28T01:31:43.735Z,65.02
2023-01-28T01:34:57.680Z,65.43
2023-01-28T01:38:10.868Z,65.49
2023-01-28T01:41:30.379Z,65.40
2023-01-28T01:45:04.795Z,65.42
2023-01-28T01:48:24.272Z,65.25
2023-01-28T01:51:39.199Z,65.59
2023-01-28T01:54:54.196Z,65.19
2023-01-28T01:58:08.390Z,65.24
2023-01-28T02:01:16.668Z,65.05
2023-01-28T02:04:30.012Z,65.35
2023-01-28T02:07:41.657Z,65.39
2023-01-28T02:10:51.260Z,65.46
2023-01-28T02:14:22.421Z,65.31
2023-01-28T02:17:54.755Z,64.95
2023-01-28T02:21:41.989Z,64.94
2023-01-28T02:26:01.041Z,64.61
2023-01-28T02:29:24.182Z,63.99
2023-01-28T02:32:46.378Z,64.22
2023-01-28T02:36:10.451Z,63.91
2023-01-28T02:39:33.366Z,63.61
2023-01-28T02:42:43.427Z,63.66
2023-01-28T02:46:04.219Z,63.23
2023-01-28T02:49:25.446Z,63.21
2023-01-28T02:53:13.272Z,63.75
2023-01-28T02:56:33.913Z,63.94
2023-01-28T02:59:54.750Z,63.34
2023-01-28T03:03:29.318Z,63.64
2023-01-28T03:06:44.901Z,63.81
2023-01-28T03:10:04.457Z,63.81
2023-01-28T03:13:22.852Z,63.44
2023-01-28T03:16:42.281Z,63.52
2023-01-28T03:20:04.492Z,63.47
2023-01-28T03:23:32.335Z,63.63
2023-01-28T03:27:06.335Z,63.89
2023-01-28T03:30:38.616Z,64.03
2023-01-28T03:34:04.936Z,64.23
2023-01-28T03:37:15.922Z,64.56
2023-01-28T03:40:30.228Z,64.88
2023-01-28T03:43:36.910Z,64.55
2023-01-28T03:46:52.801Z,64.61
2023-01-28T03:50:08.784Z,64.32
2023-01-28T03:53:28.477Z,64.57
2023-01-28T03:56:37.586Z,64.51
2023-01-28T03:59:43.348Z,64.23
2023-01-28T04:02:50.030Z,64.41
2023-01-28T04:06:05.208Z,65.02
2023-01-28T04:09:46.874Z,64.70
2023-01-28T04:13:14.205Z,65.31
2023-01-28T04:16:25.261Z,65.05
2023-01-28T04:19:37.416Z,65.12
2023-01-28T04:22:45.825Z,64.99
2023-01-28T04:26:05.259Z,65.35
2023-01-28T04:29:12.431Z,65.38
2023-01-28T04:32:18.308Z,65.91
2023-01-28T04:35:44.836Z,65.69
2023-01-28T04:39:00.160Z,65.73
2023-01-28T04:42:37.931Z,65.06
2023-01-28T04:45:54.549Z,65.31
2023-01-28T04:49:21.825Z,65.37
2023-01-28T04:52:50.490Z,64.89
2023-01-28T04:56:06.783Z,65.19
2023-01-28T04:59:35.456Z,64.90
2023-01-28T05:02:44.070Z,64.38
2023-01-28T05:05:50.021Z,64.43
2023-01-28T05:09:02.060Z,64.69
2023-01-28T05:12:09.630Z,64.59
2023-01-28T05:15:26.497Z,64.25
2023-01-28T05:18:33.828Z,64.71
2023-01-28T05:21:48.574Z,65.02
2023-01-28T05:25:11.979Z,64.57
2023-01-28T05:28:19.006Z,64.92
2023-01-28T05:31:29.453Z,64.84
2023-01-28T05:34:38.333Z,64.93
2023-01-28T05:37:49.629Z,65.31
2023-01-28T05:40:58.971Z,65.05
2023-01-28T05:44:05.040Z,64.90
2023-01-28T05:47:32.910Z,65.17
2023-01-28T05:50:43.988Z,64.94
2023-01-28T05:53:56.337Z,64.72
2023-01-28T05:57:02.205Z,64.33
2023-01-28T06:00:12.275Z,64.07
2023-01-28T06:03:23.261Z,63.97
2023-01-28T06:06:29.971Z,64.05
2023-01-28T06:09:36.328Z,64.37
2023-01-28T06:12:43.552Z,64.52
2023-01-28T06:16:09.016Z,63.78
2023-01-28T06:19:29.155Z,64.79
2023-01-28T06:22:34.873Z,64.72
2023-01-28T06:25:41.707Z,64.79
2023-01-28T06:28:51.224Z,65.15
2023-01-28T06:31:57.844Z,65.02
2023-01-28T06:35:19.466Z,65.02
2023-01-28T06:38:28.027Z,65.16
2023-01-28T06:41:33.929Z,64.98
2023-01-28T06:44:40.513Z,64.73
2023-01-28T06:47:46.267Z,65.05
2023-01-28T06:50:56.513Z,64.69
2023-01-28T06:54:04.925Z,64.60
2023-01-28T06:57:11.468Z,64.73
2023-01-28T07:00:18.726Z,64.41
2023-01-28T07:03:25.557Z,65.13
2023-01-28T07:06:33.931Z,65.20
2023-01-28T07:09:40.594Z,65.20
2023-01-28T07:12:46.468Z,65.51
2023-01-28T07:15:53.250Z,65.78
2023-01-28T07:18:59.018Z,66.00
2023-01-28T07:22:08.210Z,65.38
2023-01-28T07:25:16.819Z,65.95
2023-01-28T07:28:24.156Z,66.22
2023-01-28T07:31:30.026Z,66.62
2023-01-28T07:34:37.831Z,65.77
2023-01-28T07:37:46.216Z,65.83
2023-01-28T07:40:52.892Z,65.35
2023-01-28T07:43:58.658Z,65.66
2023-01-28T07:47:19.771Z,65.49
2023-01-28T07:50:25.832Z,65.81
2023-01-28T07:53:35.148Z,65.92
2023-01-28T07:56:41.008Z,66.32
2023-01-28T07:59:47.567Z,65.82
2023-01-28T08:02:58.029Z,65.88
2023-01-28T08:06:04.775Z,65.79
2023-01-28T08:09:13.191Z,65.53
2023-01-28T08:12:19.786Z,65.56
2023-01-28T08:15:29.931Z,65.80
2023-01-28T08:18:36.730Z,65.71
2023-01-28T08:21:42.547Z,64.81
2023-01-28T08:24:51.717Z,64.80
2023-01-28T08:27:57.422Z,65.09
2023-01-28T08:31:04.463Z,64.97
2023-01-28T08:34:16.324Z,65.46
2023-01-28T08:37:23.039Z,64.82
2023-01-28T08:40:32.442Z,64.19
2023-01-28T08:43:39.099Z,64.27
2023-01-28T08:46:44.888Z,63.55
2023-01-28T08:49:51.495Z,63.21
2023-01-28T08:53:03.686Z,63.64
2023-01-28T08:56:14.561Z,63.58
2023-01-28T08:59:20.312Z,63.66
2023-01-28T09:02:31.784Z,63.00
2023-01-28T09:05:39.165Z,63.24
2023-01-28T09:08:45.784Z,63.29
2023-01-28T09:11:54.191Z,63.10
2023-01-28T09:15:01.264Z,62.51
2023-01-28T09:18:09.964Z,62.77
2023-01-28T09:21:16.518Z,62.23
2023-01-28T09:24:27.945Z,61.63
2023-01-28T09:27:37.297Z,61.69
2023-01-28T09:30:43.126Z,61.96
2023-01-28T09:33:59.425Z,61.63
2023-01-28T09:37:19.923Z,62.16
2023-01-28T09:40:38.564Z,62.46
2023-01-28T09:44:15.521Z,62.98
2023-01-28T09:47:32.159Z,62.54
2023-01-28T09:50:44.736Z,61.61
2023-01-28T09:54:00.712Z,60.97
2023-01-28T09:57:17.149Z,61.31
2023-01-28T10:00:34.268Z,61.30
2023-01-28T10:03:57.894Z,60.88
2023-01-28T10:07:30.710Z,61.00
2023-01-28T10:10:47.531Z,61.05
2023-01-28T10:14:12.174Z,61.38
2023-01-28T10:17:31.797Z,61.48
2023-01-28T10:20:47.290Z,61.12
2023-01-28T10:24:06.793Z,61.60
2023-01-28T10:27:26.313Z,61.35
2023-01-28T10:30:42.921Z,61.54
2023-01-28T10:33:54.323Z,62.09
2023-01-28T10:37:09.543Z,61.40
2023-01-28T10:40:22.397Z,61.23
2023-01-28T10:43:34.133Z,61.73
2023-01-28T10:46:41.246Z,61.44
2023-01-28T10:50:05.273Z,61.31
2023-01-28T10:53:11.913Z,61.57
2023-01-28T10:56:27.714Z,62.63
2023-01-28T10:59:41.929Z,62.36
2023-01-28T11:02:47.792Z,62.29
2023-01-28T11:06:00.440Z,62.02
2023-01-28T11:09:06.212Z,61.58
2023-01-28T11:12:22.680Z,61.72
2023-01-28T11:15:28.675Z,61.61
2023-01-28T11:18:42.622Z,61.39
2023-01-28T11:22:00.864Z,61.25
2023-01-28T11:25:22.947Z,60.41
2023-01-28T11:28:30.716Z,60.47
2023-01-28T11:31:47.205Z,60.20
2023-01-28T11:34:57.601Z,60.07
2023-01-28T11:38:06.785Z,59.59
2023-01-28T11:41:19.508Z,59.71
2023-01-28T11:44:30.676Z,59.19
2023-01-28T11:48:05.462Z,59.35
2023-01-28T11:51:38.337Z,59.34
2023-01-28T11:55:11.206Z,58.99
2023-01-28T11:58:33.815Z,59.02
2023-01-28T12:01:55.519Z,58.71
2023-01-28T12:05:31.661Z,58.95
2023-01-28T12:08:53.466Z,59.60
2023-01-28T12:12:31.971Z,59.67
2023-01-28T12:16:05.929Z,59.73
2023-01-28T12:19:35.311Z,59.43
2023-01-28T12:23:11.413Z,60.14
2023-01-28T12:26:30.308Z,60.52
2023-01-28T12:29:54.101Z,60.73
2023-01-28T12:33:34.453Z,61.28
2023-01-28T12:37:01.521Z,61.84
2023-01-28T12:40:45.357Z,61.91
2023-01-28T12:44:04.080Z,61.66
2023-01-28T12:47:25.346Z,61.70
2023-01-28T12:50:40.595Z,62.32
2023-01-28T12:53:58.797Z,61.97
2023-01-28T12:57:11.560Z,62.33
2023-01-28T13:00:32.008Z,62.12
2023-01-28T13:03:55.142Z,61.79
2023-01-28T13:07:09.662Z,61.71
2023-01-28T13:10:28.534Z,62.29
2023-01-28T13:13:39.819Z,62.07
2023-01-28T13:16:45.791Z,61.42
2023-01-28T13:19:55.127Z,61.78
2023-01-28T13:23:06.838Z,62.19
2023-01-28T13:26:32.016Z,62.37
2023-01-28T13:29:40.268Z,62.50
2023-01-28T13:33:00.094Z,62.52
2023-01-28T13:36:30.357Z,62.56
2023-01-28T13:39:40.352Z,62.38
2023-01-28T13:42:46.227Z,62.62
2023-01-28T13:46:03.710Z,62.87
2023-01-28T13:49:26.380Z,63.27
2023-01-28T13:52:48.530Z,62.69
2023-01-28T13:56:02.005Z,63.20
2023-01-28T13:59:47.695Z,62.73
2023-01-28T14:03:50.717Z,64.04
2023-01-28T14:07:29.791Z,64.35
2023-01-28T14:11:01.821Z,64.33
2023-01-28T14:14:44.769Z,64.47
2023-01-28T14:17:55.216Z,64.35
2023-01-28T14:21:12.501Z,64.15
2023-01-28T14:24:22.660Z,64.71
2023-01-28T14:27:45.310Z,64.63
2023-01-28T14:31:00.932Z,64.38
2023-01-28T14:34:23.005Z,63.57
2023-01-28T14:37:35.008Z,63.57
2023-01-28T14:40:44.061Z,63.46
2023-01-28T14:43:53.128Z,63.96
2023-01-28T14:47:35.453Z,63.62
2023-01-28T14:51:07.681Z,63.76
2023-01-28T14:54:49.719Z,63.93
2023-01-28T14:58:04.238Z,64.27
2023-01-28T15:01:27.127Z,64.35
2023-01-28T15:04:36.983Z,64.48
2023-01-28T15:07:49.196Z,64.68
2023-01-28T15:10:59.292Z,64.70
2023-01-28T15:14:06.582Z,64.97
2023-01-28T15:17:29.390Z,64.55
2023-01-28T15:20:37.054Z,64.15
2023-01-28T15:23:46.121Z,64.22
2023-01-28T15:26:53.625Z,64.00
2023-01-28T15:30:02.765Z,64.28
2023-01-28T15:33:18.553Z,64.14
2023-01-28T15:36:25.112Z,64.03
2023-01-28T15:39:33.407Z,64.00
2023-01-28T15:42:40.279Z,63.68
2023-01-28T15:45:51.011Z,64.32
2023-01-28T15:49:06.328Z,64.02
2023-01-28T15:52:13.510Z,64.32
2023-01-28T15:55:40.195Z,64.27
2023-01-28T15:58:47.333Z,64.33
2023-01-28T16:01:53.587Z,64.29
2023-01-28T16:05:08.435Z,64.15
2023-01-28T16:08:29.568Z,64.25
2023-01-28T16:11:45.102Z,64.45
2023-01-28T16:14:57.502Z,65.15
2023-01-28T16:18:05.446Z,65.17
2023-01-28T16:21:22.360Z,65.72
2023-01-28T16:24:32.507Z,65.97
2023-01-28T16:27:38.364Z,66.23
2023-01-28T16:30:45.088Z,66.68
2023-01-28T16:33:51.672Z,66.49
2023-01-28T16:37:13.349Z,67.01
2023-01-28T16:40:27.871Z,66.69
2023-01-28T16:43:44.687Z,67.17
2023-01-28T16:46:50.702Z,67.08
2023-01-28T16:49:57.587Z,67.17
2023-01-28T16:53:06.156Z,67.46
2023-01-28T16:56:30.704Z,67.44
2023-01-28T16:59:42.211Z,67.88
2023-01-28T17:02:49.122Z,67.94
2023-01-28T17:05:55.081Z,69.30
2023-01-28T17:09:06.578Z,69.43
2023-01-28T17:12:12.441Z,69.75
2023-01-28T17:15:19.767Z,69.93
2023-01-28T17:18:26.116Z,70.11
2023-01-28T17:21:36.446Z,70.89
2023-01-28T17:24:44.865Z,71.79
2023-01-28T17:27:53.023Z,72.55
2023-01-28T17:30:58.866Z,72.67
2023-01-28T17:34:07.272Z,73.27
2023-01-28T17:37:13.061Z,72.87
2023-01-28T17:40:26.175Z,73.37
2023-01-28T17:43:31.935Z,73.46
2023-01-28T17:46:38.608Z,74.55
2023-01-28T17:49:44.392Z,74.70
2023-01-28T17:52:51.189Z,75.41
2023-01-28T17:55:59.590Z,75.72
2023-01-28T17:59:17.458Z,76.13
2023-01-28T18:02:26.255Z,76.13
2023-01-28T18:05:32.989Z,75.81
2023-01-28T18:08:39.034Z,76.01
2023-01-28T18:11:48.651Z,76.10
2023-01-28T18:14:54.891Z,76.22
2023-01-28T18:18:08.598Z,76.64
2023-01-28T18:21:54.213Z,77.25
2023-01-28T18:25:00.991Z,77.76
2023-01-28T18:28:09.373Z,77.42
2023-01-28T18:31:16.145Z,77.09
2023-01-28T18:34:21.998Z,77.32
2023-01-28T18:37:28.672Z,76.88
2023-01-28T18:40:34.445Z,77.41
2023-01-28T18:43:44.167Z,77.58
2023-01-28T18:46:49.945Z,77.72
2023-01-28T18:49:56.709Z,77.92
2023-01-28T18:53:02.637Z,78.22
2023-01-28T18:56:15.620Z,78.64
2023-01-28T18:59:24.240Z,78.63
2023-01-28T19:02:31.034Z,79.03
2023-01-28T19:05:42.162Z,78.94
2023-01-28T19:08:56.455Z,78.90
2023-01-28T19:12:02.224Z,79.48
2023-01-28T19:15:15.931Z,79.40
2023-01-28T19:18:21.978Z,79.42
2023-01-28T19:21:30.568Z,79.55
2023-01-28T19:24:36.609Z,79.58
2023-01-28T19:27:43.402Z,79.64
2023-01-28T19:30:52.886Z,79.47
2023-01-28T19:34:02.835Z,79.22
2023-01-28T19:37:08.576Z,80.15
2023-01-28T19:40:16.460Z,80.01
2023-01-28T19:43:23.817Z,80.35
2023-01-28T19:46:33.824Z,80.16
2023-01-28T19:49:40.378Z,79.58
2023-01-28T19:52:47.038Z,79.54
2023-01-28T19:55:54.753Z,79.59
2023-01-28T19:59:01.383Z,79.19
2023-01-28T20:02:09.899Z,78.80
2023-01-28T20:05:16.844Z,78.97
2023-01-28T20:08:22.833Z,79.03
2023-01-28T20:11:31.677Z,79.35
2023-01-28T20:14:40.988Z,78.79
2023-01-28T20:17:50.219Z,78.89
2023-01-28T20:20:56.937Z,79.33
2023-01-28T20:24:06.747Z,78.92
2023-01-28T20:27:12.685Z,78.65
2023-01-28T20:30:20.727Z,78.64
2023-01-28T20:33:29.217Z,78.88
2023-01-28T20:36:36.086Z,78.93
2023-01-28T20:39:42.066Z,78.45
2023-01-28T20:42:51.273Z,78.22
2023-01-28T20:45:59.006Z,78.68
2023-01-28T20:49:10.422Z,78.83
2023-01-28T20:52:17.167Z,78.55
2023-01-28T20:55:28.825Z,78.60
2023-01-28T20:58:35.406Z,78.69
2023-01-28T21:01:42.393Z,78.50
2023-01-28T21:04:50.805Z,78.57
2023-01-28T21:07:57.475Z,79.09
2023-01-28T21:11:05.356Z,78.38
2023-01-28T21:14:12.714Z,77.92
2023-01-28T21:17:18.662Z,77.94
2023-01-28T21:20:32.512Z,78.29
2023-01-28T21:23:38.430Z,78.68
2023-01-28T21:26:45.018Z,78.60
2023-01-28T21:29:50.823Z,79.39
2023-01-28T21:32:58.051Z,78.86
2023-01-28T21:36:13.047Z,78.51
2023-01-28T21:39:20.029Z,78.61
2023-01-28T21:42:25.956Z,78.13
2023-01-28T21:45:33.432Z,78.09
2023-01-28T21:48:39.370Z,77.85
2023-01-28T21:51:51.590Z,78.19
2023-01-28T21:54:59.157Z,78.11
2023-01-28T21:58:28.232Z,77.74
2023-01-28T22:01:34.345Z,76.47
2023-01-28T22:04:44.365Z,76.27
2023-01-28T22:07:52.713Z,76.51
2023-01-28T22:10:59.369Z,76.65
2023-01-28T22:14:13.025Z,76.94
2023-01-28T22:17:20.434Z,75.74
2023-01-28T22:20:27.493Z,75.82
2023-01-28T22:23:42.942Z,75.21
2023-01-28T22:26:52.810Z,74.06
2023-01-28T22:29:59.660Z,72.59
2023-01-28T22:33:05.495Z,71.72
2023-01-28T22:36:16.890Z,71.36
2023-01-28T22:39:25.325Z,69.86
2023-01-28T22:42:31.922Z,69.87
2023-01-28T22:45:37.706Z,69.11
2023-01-28T22:48:44.793Z,68.13
2023-01-28T22:51:50.624Z,68.61
2023-01-28T22:55:00.090Z,68.67
2023-01-28T22:58:09.463Z,68.86
2023-01-28T23:01:18.090Z,68.99
2023-01-28T23:04:23.859Z,70.18
2023-01-28T23:07:30.467Z,71.69
2023-01-28T23:10:39.027Z,72.53
2023-01-28T23:13:59.596Z,72.31
2023-01-28T23:17:28.176Z,71.72
2023-01-28T23:20:49.485Z,71.53
2023-01-28T23:24:13.096Z,71.93
2023-01-28T23:27:22.313Z,71.64
2023-01-28T23:30:28.127Z,71.38
2023-01-28T23:33:41.933Z,71.74
2023-01-28T23:36:48.813Z,71.51
2023-01-28T23:39:56.343Z,71.63
2023-01-28T23:43:06.287Z,71.33
2023-01-28T23:46:13.195Z,72.44
2023-01-28T23:49:31.943Z,72.76
2023-01-28T23:52:42.031Z,73.61
2023-01-28T23:55:47.810Z,73.59
2023-01-28T23:58:59.039Z,73.89
